Time;durP1;ratioP1;P1;durP2;ratioP2;P2;SDS_P1;SDS_P2;PMS_P1;PMS_P2;Temp;Humidity;BMP_temperature;BMP_pressure;BME280_temperature;BME280_humidity;BME280_pressure;Samples;Min_cycle;Max_cycle;Signal;HPM_P1;HPM_P2
2023/03/09 00:01:32;;;;;;;0.30;0.30;;;9.80;99.90;;;;;;5054687;28;20213;-68
2023/03/09 00:03:59;;;;;;;0.30;0.30;;;9.80;99.90;;;;;;5054421;28;20490;-68
2023/03/09 00:06:25;;;;;;;0.35;0.35;;;9.90;99.90;;;;;;5054756;28;20289;-68
2023/03/09 00:08:51;;;;;;;0.30;0.30;;;9.80;99.90;;;;;;5054909;28;20174;-69
2023/03/09 00:11:17;;;;;;;0.47;0.47;;;9.90;99.90;;;;;;5054572;28;20185;-68
2023/03/09 00:13:44;;;;;;;0.30;0.30;;;9.90;99.90;;;;;;5054090;28;20171;-68
2023/03/09 00:16:13;;;;;;;0.30;0.30;;;9.80;99.90;;;;;;5054388;28;20253;-69
2023/03/09 00:18:40;;;;;;;0.30;0.30;;;9.80;99.90;;;;;;5054519;28;20185;-68
2023/03/09 00:21:05;;;;;;;0.98;0.73;;;9.70;99.90;;;;;;5054528;28;20196;-69
2023/03/09 00:23:32;;;;;;;0.30;0.30;;;9.70;99.90;;;;;;5054351;28;20174;-69
2023/03/09 00:26:05;;;;;;;0.30;0.30;;;9.70;99.90;;;;;;5054432;28;20205;-69
2023/03/09 00:28:31;;;;;;;0.50;0.50;;;9.70;99.90;;;;;;5054524;28;20167;-68
2023/03/09 00:31:06;;;;;;;0.40;0.40;;;9.70;99.90;;;;;;5054320;28;20184;-68
2023/03/09 00:33:32;;;;;;;0.30;0.30;;;9.70;99.90;;;;;;5054161;28;20395;-69
2023/03/09 00:35:58;;;;;;;1.13;0.97;;;9.90;99.90;;;;;;5054401;28;20178;-68
2023/03/09 00:38:24;;;;;;;0.40;0.40;;;9.90;99.90;;;;;;5054338;28;20631;-69
2023/03/09 00:40:50;;;;;;;0.40;0.40;;;9.90;99.90;;;;;;5054100;28;20198;-69
2023/03/09 00:43:16;;;;;;;1.33;1.33;;;9.90;99.90;;;;;;5053789;28;20170;-69
2023/03/09 00:45:42;;;;;;;0.38;0.38;;;10.00;99.90;;;;;;5053945;28;20190;-70
2023/03/09 00:48:07;;;;;;;0.90;0.90;;;10.00;99.90;;;;;;5054064;28;20185;-69
2023/03/09 00:57:25;;;;;;;0.55;0.55;;;9.60;99.90;;;;;;5053835;28;20196;-68
2023/03/09 00:59:54;;;;;;;0.88;0.85;;;9.60;99.90;;;;;;5053579;28;20635;-69
2023/03/09 01:02:20;;;;;;;0.50;0.50;;;9.60;99.90;;;;;;5053692;28;20194;-68
2023/03/09 01:04:46;;;;;;;0.70;0.70;;;9.40;99.90;;;;;;5053629;28;20171;-68
2023/03/09 01:07:12;;;;;;;0.73;0.65;;;9.30;99.90;;;;;;5053891;28;20476;-68
2023/03/09 01:09:38;;;;;;;0.30;0.30;;;9.30;99.90;;;;;;5053814;28;20193;-68
2023/03/09 01:12:05;;;;;;;0.40;0.40;;;9.20;99.90;;;;;;5054063;28;20158;-68
2023/03/09 01:14:31;;;;;;;0.40;0.40;;;9.30;99.90;;;;;;5053528;28;20181;-68
2023/03/09 01:16:56;;;;;;;0.52;0.50;;;9.50;99.90;;;;;;5053513;28;20170;-67
2023/03/09 01:19:22;;;;;;;0.40;0.40;;;9.50;99.90;;;;;;5053593;28;20230;-69
2023/03/09 01:21:48;;;;;;;0.40;0.40;;;9.50;99.90;;;;;;5053795;28;20202;-68
2023/03/09 01:24:13;;;;;;;0.30;0.30;;;9.30;99.90;;;;;;5053105;28;20665;-68
2023/03/09 01:26:39;;;;;;;0.30;0.30;;;9.30;99.90;;;;;;5053832;28;20209;-69
2023/03/09 01:29:04;;;;;;;0.60;0.60;;;9.20;99.90;;;;;;5035457;28;20193;-69
2023/03/09 01:31:30;;;;;;;0.40;0.40;;;9.30;99.90;;;;;;5053432;28;20182;-69
2023/03/09 01:33:56;;;;;;;0.50;0.50;;;9.20;99.90;;;;;;5053080;28;20169;-69
2023/03/09 01:36:21;;;;;;;0.40;0.40;;;9.20;99.90;;;;;;5053587;28;20178;-68
2023/03/09 01:38:47;;;;;;;0.30;0.30;;;9.10;99.90;;;;;;5053523;28;20174;-69
2023/03/09 01:41:15;;;;;;;0.73;0.73;;;9.00;99.90;;;;;;5053658;28;20278;-69
2023/03/09 01:43:41;;;;;;;0.30;0.30;;;9.00;99.90;;;;;;5053256;28;20748;-68
2023/03/09 01:46:23;;;;;;;0.40;0.40;;;9.10;99.90;;;;;;5053180;28;20202;-67
2023/03/09 01:48:50;;;;;;;0.30;0.30;;;8.90;99.90;;;;;;5053415;28;20188;-68
2023/03/09 01:51:18;;;;;;;0.30;0.30;;;8.70;99.90;;;;;;5053271;28;20197;-69
2023/03/09 01:53:45;;;;;;;0.50;0.50;;;8.70;99.90;;;;;;5053399;28;20170;-69
2023/03/09 01:56:11;;;;;;;0.40;0.40;;;8.80;99.90;;;;;;5053054;28;20174;-69
2023/03/09 01:58:37;;;;;;;0.40;0.40;;;8.80;99.90;;;;;;5053178;28;20174;-68
2023/03/09 02:01:03;;;;;;;0.30;0.30;;;8.90;99.90;;;;;;5052866;28;20288;-68
2023/03/09 02:03:34;;;;;;;0.63;0.60;;;9.00;99.90;;;;;;5054983;28;20886;-67
2023/03/09 02:06:12;;;;;;;1.25;1.15;;;9.10;99.90;;;;;;5057141;28;20194;-70
2023/03/09 02:08:45;;;;;;;0.63;0.63;;;9.10;99.90;;;;;;5056804;28;20174;-69
2023/03/09 02:11:13;;;;;;;0.50;0.50;;;9.10;99.90;;;;;;5056942;28;20331;-69
2023/03/09 02:13:44;;;;;;;0.50;0.50;;;9.10;99.90;;;;;;5056702;28;20171;-67
2023/03/09 02:16:10;;;;;;;0.50;0.50;;;9.20;99.90;;;;;;5056984;28;20181;-67
2023/03/09 02:18:36;;;;;;;0.30;0.30;;;9.00;99.90;;;;;;5056934;28;20175;-69
2023/03/09 02:21:14;;;;;;;0.40;0.40;;;9.00;99.90;;;;;;5056470;28;20217;-67
2023/03/09 02:24:09;;;;;;;0.77;0.77;;;9.00;99.90;;;;;;5056528;28;20672;-69
2023/03/09 02:26:47;;;;;;;0.30;0.30;;;9.20;99.90;;;;;;5056247;28;20205;-67
2023/03/09 02:29:14;;;;;;;0.30;0.30;;;9.00;99.90;;;;;;5057043;28;20507;-69
2023/03/09 02:31:40;;;;;;;4.00;0.88;;;9.00;99.90;;;;;;5056311;28;20219;-68
2023/03/09 02:34:06;;;;;;;0.30;0.30;;;9.00;99.90;;;;;;5056138;28;20256;-69
2023/03/09 02:36:32;;;;;;;1.30;0.88;;;9.10;99.90;;;;;;5056534;28;20401;-67
2023/03/09 02:39:09;;;;;;;0.43;0.43;;;8.90;99.90;;;;;;5056616;28;20183;-68
2023/03/09 02:41:35;;;;;;;1.10;0.52;;;9.00;99.90;;;;;;5056715;28;20239;-69
2023/03/09 02:44:01;;;;;;;0.40;0.40;;;9.10;99.90;;;;;;5055989;28;20564;-67
2023/03/09 02:46:27;;;;;;;0.40;0.40;;;9.10;99.90;;;;;;5056173;28;20544;-69
2023/03/09 02:48:54;;;;;;;0.30;0.30;;;9.20;99.90;;;;;;5056454;28;20174;-69
2023/03/09 02:51:19;;;;;;;0.60;0.60;;;9.30;99.90;;;;;;5056396;28;20189;-68
2023/03/09 02:53:45;;;;;;;1.50;1.40;;;9.10;99.90;;;;;;5055977;28;20659;-68
2023/03/09 02:56:10;;;;;;;0.30;0.30;;;8.90;99.90;;;;;;5056451;28;20254;-68
2023/03/09 02:58:36;;;;;;;0.40;0.40;;;9.00;99.90;;;;;;5056312;28;20555;-68
2023/03/09 03:01:02;;;;;;;0.40;0.40;;;8.90;99.90;;;;;;5055815;28;20687;-69
2023/03/09 03:03:27;;;;;;;0.40;0.40;;;9.00;99.90;;;;;;5055926;28;20170;-69
2023/03/09 03:05:53;;;;;;;0.50;0.50;;;8.80;99.90;;;;;;5055505;28;20194;-69
2023/03/09 03:08:19;;;;;;;0.30;0.30;;;8.70;99.90;;;;;;5055845;28;20170;-68
2023/03/09 03:10:44;;;;;;;0.30;0.30;;;8.80;99.90;;;;;;5056219;28;20254;-68
2023/03/09 03:13:10;;;;;;;0.30;0.30;;;8.80;99.90;;;;;;5055691;28;20653;-69
2023/03/09 03:15:36;;;;;;;0.30;0.30;;;8.80;99.90;;;;;;5054478;28;20170;-68
2023/03/09 03:18:02;;;;;;;0.40;0.40;;;8.70;99.90;;;;;;5055785;28;20411;-68
2023/03/09 03:20:27;;;;;;;0.30;0.30;;;8.60;99.90;;;;;;5055491;28;20190;-69
2023/03/09 03:22:53;;;;;;;0.37;0.37;;;8.60;99.90;;;;;;5055974;28;20216;-68
2023/03/09 03:25:19;;;;;;;0.40;0.40;;;8.50;99.90;;;;;;5055115;28;20171;-67
2023/03/09 03:27:45;;;;;;;0.30;0.30;;;8.40;99.90;;;;;;5037413;28;20681;-69
2023/03/09 03:30:12;;;;;;;0.30;0.30;;;8.30;99.90;;;;;;5055428;28;20212;-68
2023/03/09 03:32:37;;;;;;;0.30;0.30;;;8.20;99.90;;;;;;5055530;28;20268;-68
2023/03/09 03:35:03;;;;;;;0.43;0.43;;;8.30;99.90;;;;;;5055570;28;20216;-69
2023/03/09 03:37:30;;;;;;;0.32;0.32;;;8.30;99.90;;;;;;5055518;28;20181;-67
2023/03/09 03:39:55;;;;;;;0.40;0.40;;;8.30;99.90;;;;;;5055763;28;20605;-68
2023/03/09 03:42:21;;;;;;;0.40;0.40;;;8.30;99.90;;;;;;5055219;28;20181;-68
2023/03/09 03:44:47;;;;;;;0.30;0.30;;;8.30;99.90;;;;;;5055158;28;20227;-68
2023/03/09 03:47:12;;;;;;;0.30;0.30;;;8.40;99.90;;;;;;5055147;28;20810;-68
2023/03/09 03:49:38;;;;;;;0.30;0.30;;;8.50;99.90;;;;;;5055396;28;20174;-68
2023/03/09 03:52:04;;;;;;;1.27;1.27;;;8.60;99.90;;;;;;5055429;28;20177;-67
2023/03/09 03:54:30;;;;;;;0.30;0.30;;;8.50;99.90;;;;;;5055014;28;20404;-68
2023/03/09 03:56:55;;;;;;;0.30;0.30;;;8.40;99.90;;;;;;5055164;28;20546;-69
2023/03/09 03:59:21;;;;;;;0.30;0.30;;;8.30;99.90;;;;;;5055030;28;20209;-69
2023/03/09 04:01:47;;;;;;;0.40;0.40;;;8.40;99.90;;;;;;5055039;28;20194;-69
2023/03/09 04:04:12;;;;;;;0.40;0.40;;;8.50;99.90;;;;;;5054670;28;20256;-69
2023/03/09 04:06:38;;;;;;;0.40;0.40;;;8.40;99.90;;;;;;5055200;28;20205;-67
2023/03/09 04:09:04;;;;;;;0.30;0.30;;;8.50;99.90;;;;;;5055309;28;20170;-69
2023/03/09 04:11:30;;;;;;;0.30;0.30;;;8.50;99.90;;;;;;5054640;28;20178;-68
2023/03/09 04:13:56;;;;;;;0.30;0.30;;;8.60;99.90;;;;;;5054388;28;20181;-68
2023/03/09 04:16:22;;;;;;;0.30;0.30;;;8.60;99.90;;;;;;5054808;28;20408;-68
2023/03/09 04:18:47;;;;;;;0.30;0.30;;;8.30;99.90;;;;;;5054895;28;20461;-67
2023/03/09 04:21:14;;;;;;;0.30;0.30;;;8.00;99.90;;;;;;5054923;28;20255;-69
2023/03/09 04:23:41;;;;;;;0.40;0.40;;;8.20;99.90;;;;;;5054168;28;20194;-69
2023/03/09 04:26:06;;;;;;;0.30;0.30;;;8.20;99.90;;;;;;5054123;28;20202;-68
2023/03/09 04:28:32;;;;;;;0.30;0.30;;;8.30;99.90;;;;;;5054472;28;20615;-67
2023/03/09 04:30:58;;;;;;;0.40;0.40;;;8.40;99.90;;;;;;5054078;28;20201;-69
2023/03/09 04:33:24;;;;;;;0.33;0.33;;;8.40;99.90;;;;;;5054392;28;20512;-69
2023/03/09 04:35:49;;;;;;;0.30;0.30;;;8.40;99.90;;;;;;5054838;28;20415;-67
2023/03/09 04:38:15;;;;;;;0.40;0.40;;;8.40;99.90;;;;;;5054699;28;20657;-69
2023/03/09 04:40:41;;;;;;;0.30;0.30;;;8.40;99.90;;;;;;5054127;28;20194;-69
2023/03/09 04:43:07;;;;;;;0.40;0.40;;;8.30;99.90;;;;;;5054166;28;20411;-69
2023/03/09 04:45:33;;;;;;;0.30;0.30;;;8.30;99.90;;;;;;5054225;28;20223;-68
2023/03/09 04:47:59;;;;;;;0.30;0.30;;;8.30;99.90;;;;;;5054358;28;20444;-69
2023/03/09 04:50:25;;;;;;;0.50;0.50;;;8.30;99.90;;;;;;5036452;28;20193;-68
2023/03/09 04:52:51;;;;;;;0.30;0.30;;;8.30;99.90;;;;;;5054513;28;20178;-69
2023/03/09 04:55:17;;;;;;;0.30;0.30;;;8.30;99.90;;;;;;5053760;28;20569;-67
2023/03/09 04:57:43;;;;;;;0.40;0.40;;;8.30;99.90;;;;;;5053803;28;20407;-69
2023/03/09 05:00:11;;;;;;;0.30;0.30;;;8.30;99.90;;;;;;5053809;28;20273;-69
2023/03/09 05:02:39;;;;;;;0.32;0.32;;;8.20;99.90;;;;;;5054118;28;20463;-69
2023/03/09 05:05:06;;;;;;;0.40;0.40;;;8.30;99.90;;;;;;5053407;28;20173;-68
2023/03/09 05:07:32;;;;;;;0.30;0.30;;;8.20;99.90;;;;;;5053714;28;20197;-69
2023/03/09 05:09:58;;;;;;;0.30;0.30;;;8.30;99.90;;;;;;5053660;28;20190;-67
2023/03/09 05:12:30;;;;;;;0.33;0.33;;;8.20;99.90;;;;;;5053921;28;20170;-68
2023/03/09 05:14:59;;;;;;;0.30;0.30;;;8.10;99.90;;;;;;5053828;28;20538;-67
2023/03/09 05:17:25;;;;;;;0.30;0.30;;;8.00;99.90;;;;;;5054002;28;20319;-68
2023/03/09 05:19:51;;;;;;;0.40;0.40;;;8.00;99.90;;;;;;5054047;28;20193;-68
2023/03/09 05:22:17;;;;;;;0.47;0.47;;;7.90;99.90;;;;;;5053505;28;20184;-69
2023/03/09 05:24:43;;;;;;;3.92;0.73;;;7.80;99.90;;;;;;5053393;28;20181;-69
2023/03/09 05:27:09;;;;;;;0.37;0.37;;;7.80;99.90;;;;;;5053604;28;20209;-67
2023/03/09 05:29:34;;;;;;;0.40;0.40;;;7.90;99.90;;;;;;5053757;28;20396;-69
2023/03/09 05:32:01;;;;;;;0.40;0.40;;;7.90;99.90;;;;;;5053895;28;20404;-69
2023/03/09 05:34:26;;;;;;;0.40;0.40;;;8.00;99.90;;;;;;5053336;28;20224;-69
2023/03/09 05:36:52;;;;;;;0.30;0.30;;;8.00;99.90;;;;;;5053373;28;20174;-69
2023/03/09 05:39:18;;;;;;;0.30;0.30;;;8.10;99.90;;;;;;5057116;28;20177;-69
2023/03/09 05:41:43;;;;;;;1.73;1.63;;;8.10;99.90;;;;;;5057836;28;20570;-69
2023/03/09 05:44:09;;;;;;;0.40;0.40;;;8.20;99.90;;;;;;5057280;28;20257;-69
2023/03/09 05:46:35;;;;;;;0.40;0.40;;;8.10;99.90;;;;;;5057947;28;20192;-68
2023/03/09 05:49:00;;;;;;;0.83;0.83;;;8.00;99.90;;;;;;5057901;28;20256;-68
2023/03/09 05:51:26;;;;;;;0.30;0.30;;;8.00;99.90;;;;;;5057295;28;20197;-68
2023/03/09 05:53:52;;;;;;;0.30;0.30;;;8.00;99.90;;;;;;5056950;28;20219;-69
2023/03/09 05:56:18;;;;;;;0.40;0.40;;;8.00;99.90;;;;;;5057577;28;20174;-67
2023/03/09 05:58:43;;;;;;;0.70;0.70;;;8.00;99.90;;;;;;5057503;28;20177;-69
2023/03/09 06:01:21;;;;;;;1.70;0.60;;;8.10;99.90;;;;;;5057190;28;20212;-68
2023/03/09 06:03:48;;;;;;;0.40;0.40;;;8.20;99.90;;;;;;5057337;28;20176;-69
2023/03/09 06:06:15;;;;;;;0.30;0.30;;;8.20;99.90;;;;;;5056843;28;20704;-68
2023/03/09 06:08:40;;;;;;;0.30;0.30;;;8.20;99.90;;;;;;5057122;28;20185;-68
2023/03/09 06:11:06;;;;;;;0.40;0.40;;;8.10;99.90;;;;;;5057218;28;20197;-69
2023/03/09 06:13:32;;;;;;;1.17;1.17;;;8.20;99.90;;;;;;5056826;28;20491;-69
2023/03/09 06:15:58;;;;;;;1.07;1.07;;;8.30;99.90;;;;;;5057415;28;20200;-68
2023/03/09 06:18:24;;;;;;;0.30;0.30;;;8.30;99.90;;;;;;5057188;28;20276;-68
2023/03/09 06:20:49;;;;;;;0.30;0.30;;;8.20;99.90;;;;;;5056710;28;20662;-68
2023/03/09 06:23:15;;;;;;;0.60;0.40;;;8.00;99.90;;;;;;5056750;28;20209;-69
2023/03/09 06:25:41;;;;;;;0.30;0.30;;;8.00;99.90;;;;;;5056923;28;20226;-68
2023/03/09 06:28:08;;;;;;;1.00;1.00;;;8.10;99.90;;;;;;5057044;28;20410;-68
2023/03/09 06:30:33;;;;;;;0.50;0.50;;;8.10;99.90;;;;;;5056661;28;20601;-69
2023/03/09 06:32:59;;;;;;;0.30;0.30;;;8.00;99.90;;;;;;5056388;28;20181;-69
2023/03/09 06:35:25;;;;;;;1.33;0.90;;;8.00;99.90;;;;;;5056387;28;20221;-69
2023/03/09 06:37:50;;;;;;;0.50;0.50;;;8.10;99.90;;;;;;5038700;28;20181;-70
2023/03/09 06:40:17;;;;;;;0.60;0.60;;;8.20;99.90;;;;;;5056621;28;20220;-69
2023/03/09 06:42:43;;;;;;;0.30;0.30;;;8.20;99.90;;;;;;5056369;28;20513;-70
2023/03/09 06:45:09;;;;;;;0.40;0.40;;;8.30;99.90;;;;;;5056247;28;20181;-70
2023/03/09 06:47:35;;;;;;;0.68;0.68;;;8.30;99.90;;;;;;5056323;28;20233;-69
2023/03/09 06:50:00;;;;;;;0.40;0.40;;;8.10;99.90;;;;;;5055940;28;20581;-69
2023/03/09 06:52:26;;;;;;;0.50;0.50;;;8.10;99.90;;;;;;5056396;28;20163;-69
2023/03/09 06:54:52;;;;;;;0.50;0.50;;;8.10;99.90;;;;;;5055982;28;20511;-69
2023/03/09 06:57:18;;;;;;;0.73;0.73;;;8.00;99.90;;;;;;5056517;28;20170;-70
2023/03/09 06:59:44;;;;;;;0.30;0.30;;;7.90;99.90;;;;;;5056463;28;20200;-69
2023/03/09 07:02:14;;;;;;;0.40;0.40;;;7.90;99.90;;;;;;5055800;28;20435;-70
2023/03/09 07:04:40;;;;;;;0.30;0.30;;;8.00;99.90;;;;;;5055784;28;20170;-70
2023/03/09 07:07:06;;;;;;;0.70;0.70;;;7.90;99.90;;;;;;5056019;28;20206;-69
2023/03/09 07:09:32;;;;;;;0.40;0.40;;;7.70;99.90;;;;;;5038233;28;20176;-70
2023/03/09 07:11:59;;;;;;;0.30;0.30;;;7.60;99.90;;;;;;5055443;28;20505;-69
2023/03/09 07:14:27;;;;;;;0.30;0.30;;;7.70;99.90;;;;;;5037664;28;20169;-70
2023/03/09 07:16:54;;;;;;;0.30;0.30;;;7.80;99.90;;;;;;5055443;28;20260;-70
2023/03/09 07:19:20;;;;;;;0.50;0.50;;;7.80;99.90;;;;;;5055544;28;20183;-70
2023/03/09 07:21:47;;;;;;;0.60;0.60;;;7.90;99.90;;;;;;5055281;28;20208;-70
2023/03/09 07:24:14;;;;;;;0.43;0.43;;;8.00;99.90;;;;;;5055528;28;20185;-69
2023/03/09 07:31:51;;;;;;;0.60;0.60;;;8.60;99.90;;;;;;5352724;22;20626;-70
2023/03/09 07:34:17;;;;;;;0.77;0.77;;;8.70;99.90;;;;;;5055306;28;20186;-71
2023/03/09 07:36:42;;;;;;;0.30;0.30;;;8.60;99.90;;;;;;5054960;28;20208;-72
2023/03/09 07:39:08;;;;;;;0.30;0.30;;;8.40;99.90;;;;;;5055369;28;20172;-71
2023/03/09 07:41:34;;;;;;;1.37;1.27;;;8.50;99.90;;;;;;5055133;28;20265;-71
2023/03/09 07:43:59;;;;;;;0.30;0.30;;;8.30;99.90;;;;;;5055282;28;20408;-70
2023/03/09 07:46:25;;;;;;;0.40;0.40;;;8.20;99.90;;;;;;5055539;28;20711;-69
2023/03/09 07:48:51;;;;;;;1.47;1.37;;;8.00;99.90;;;;;;5055670;28;20701;-70
2023/03/09 07:51:18;;;;;;;0.30;0.30;;;7.90;99.90;;;;;;5055194;28;20417;-70
2023/03/09 07:53:43;;;;;;;0.50;0.50;;;7.80;99.90;;;;;;5055107;28;20813;-68
2023/03/09 07:56:09;;;;;;;0.50;0.50;;;7.70;99.90;;;;;;5055309;28;20170;-70
2023/03/09 07:58:38;;;;;;;0.67;0.67;;;7.90;99.90;;;;;;5055256;28;20174;-70
2023/03/09 08:01:06;;;;;;;0.40;0.40;;;8.10;99.90;;;;;;5054234;28;20670;-70
2023/03/09 08:03:32;;;;;;;2.92;2.08;;;8.10;99.90;;;;;;5054637;28;20251;-71
2023/03/09 08:06:00;;;;;;;0.40;0.40;;;8.00;99.90;;;;;;5036858;28;20288;-70
2023/03/09 08:08:26;;;;;;;0.30;0.30;;;8.20;99.90;;;;;;5054903;28;20304;-71
2023/03/09 08:10:53;;;;;;;6.30;0.77;;;8.30;99.90;;;;;;5054600;28;20217;-70
2023/03/09 08:13:21;;;;;;;0.30;0.30;;;8.50;99.90;;;;;;5055045;28;20194;-71
2023/03/09 08:15:47;;;;;;;0.40;0.40;;;8.50;99.90;;;;;;5055173;28;20505;-69
2023/03/09 08:18:13;;;;;;;0.40;0.40;;;8.50;99.90;;;;;;5054933;28;20638;-70
2023/03/09 08:20:39;;;;;;;0.40;0.40;;;8.50;99.90;;;;;;5054311;28;20182;-70
2023/03/09 08:23:05;;;;;;;0.40;0.40;;;8.60;99.90;;;;;;5054659;28;20587;-69
2023/03/09 08:25:32;;;;;;;0.50;0.50;;;8.70;99.90;;;;;;5054761;28;20194;-68
2023/03/09 08:27:58;;;;;;;0.40;0.40;;;8.70;99.90;;;;;;5053865;28;20233;-68
2023/03/09 08:30:24;;;;;;;0.45;0.45;;;8.60;99.90;;;;;;5054281;28;20166;-68
2023/03/09 08:32:51;;;;;;;0.50;0.50;;;8.50;99.90;;;;;;5053466;28;20197;-69
2023/03/09 08:35:19;;;;;;;0.38;0.38;;;8.70;99.90;;;;;;5054074;28;20670;-68
2023/03/09 08:37:45;;;;;;;0.40;0.40;;;8.80;99.90;;;;;;5053829;28;20653;-68
2023/03/09 08:40:12;;;;;;;0.40;0.40;;;8.70;99.90;;;;;;5054003;28;20227;-68
2023/03/09 08:42:37;;;;;;;0.35;0.35;;;8.50;99.90;;;;;;5054114;28;20221;-68
2023/03/09 08:45:05;;;;;;;0.40;0.40;;;8.50;99.90;;;;;;5054124;28;20590;-68
2023/03/09 08:47:31;;;;;;;0.40;0.40;;;8.40;99.90;;;;;;5053814;28;20202;-68
2023/03/09 08:49:56;;;;;;;0.40;0.40;;;8.50;99.90;;;;;;5054125;28;20696;-68
2023/03/09 08:52:22;;;;;;;1.83;1.73;;;8.60;99.90;;;;;;5035774;28;20268;-68
2023/03/09 08:54:49;;;;;;;0.77;0.77;;;8.80;99.90;;;;;;5053851;28;20192;-68
2023/03/09 08:57:16;;;;;;;0.30;0.30;;;8.90;99.90;;;;;;5053911;28;20177;-68
2023/03/09 08:59:41;;;;;;;0.30;0.30;;;9.00;99.90;;;;;;5053896;28;20261;-69
2023/03/09 09:02:14;;;;;;;0.40;0.40;;;9.30;99.90;;;;;;5054061;28;20625;-68
2023/03/09 09:04:41;;;;;;;0.30;0.30;;;9.60;99.90;;;;;;5054129;28;20259;-69
2023/03/09 09:07:07;;;;;;;3.03;1.03;;;10.20;99.90;;;;;;5053886;28;20232;-69
2023/03/09 09:09:33;;;;;;;0.60;0.60;;;10.50;99.60;;;;;;5053581;28;20401;-69
2023/03/09 09:11:59;;;;;;;0.40;0.40;;;10.70;99.20;;;;;;5053457;28;20190;-69
2023/03/09 09:14:24;;;;;;;0.87;0.87;;;10.50;98.20;;;;;;5053478;28;20400;-69
2023/03/09 09:16:50;;;;;;;0.30;0.30;;;10.40;98.30;;;;;;5053560;28;20630;-69
2023/03/09 09:19:16;;;;;;;6.72;0.98;;;10.50;98.90;;;;;;5053506;28;20166;-69
2023/03/09 09:21:42;;;;;;;0.40;0.40;;;11.30;98.60;;;;;;5053292;28;20223;-69
2023/03/09 09:24:08;;;;;;;0.40;0.40;;;11.10;97.90;;;;;;5053465;28;20785;-69
2023/03/09 09:26:34;;;;;;;0.30;0.30;;;11.10;97.60;;;;;;5053516;28;20444;-68
2023/03/09 09:29:01;;;;;;;0.30;0.30;;;11.30;97.80;;;;;;5053562;28;20177;-69
2023/03/09 09:31:27;;;;;;;0.30;0.30;;;11.40;97.00;;;;;;5053225;28;20162;-69
2023/03/09 09:33:53;;;;;;;0.40;0.40;;;11.90;97.10;;;;;;5053254;28;20435;-69
2023/03/09 09:36:19;;;;;;;0.40;0.40;;;13.00;96.20;;;;;;5053377;28;20433;-69
2023/03/09 09:38:45;;;;;;;0.80;0.80;;;14.50;94.30;;;;;;5053415;28;20170;-70
2023/03/09 09:41:15;;;;;;;0.80;0.40;;;16.40;90.60;;;;;;5053213;28;20185;-70
2023/03/09 09:43:42;;;;;;;0.33;0.33;;;16.70;83.20;;;;;;5053312;28;20456;-69
2023/03/09 09:46:12;;;;;;;3.70;0.87;;;16.40;82.60;;;;;;5053145;28;20453;-69
2023/03/09 09:48:40;;;;;;;0.30;0.30;;;15.80;83.30;;;;;;5053339;28;20431;-69
2023/03/09 09:51:16;;;;;;;0.50;0.50;;;14.90;86.10;;;;;;5053053;28;20405;-69
2023/03/09 09:54:11;;;;;;;3.07;0.57;;;14.20;88.20;;;;;;5035264;28;20515;-69
2023/03/09 09:56:47;;;;;;;0.40;0.40;;;13.90;89.70;;;;;;5053198;28;20771;-69
2023/03/09 09:59:32;;;;;;;0.30;0.30;;;13.10;90.40;;;;;;5053304;28;20411;-69
2023/03/09 10:02:12;;;;;;;0.50;0.40;;;12.50;91.20;;;;;;5052966;28;20436;-69
2023/03/09 10:04:45;;;;;;;1.63;1.53;;;12.20;92.50;;;;;;5053543;28;20389;-69
2023/03/09 10:07:16;;;;;;;3.23;2.20;;;11.60;93.10;;;;;;5053100;28;20602;-69
2023/03/09 10:09:52;;;;;;;0.87;0.50;;;11.40;95.30;;;;;;5053177;28;20878;-69
2023/03/09 10:12:18;;;;;;;0.30;0.30;;;11.20;95.70;;;;;;5052917;28;20503;-69
2023/03/09 10:14:59;;;;;;;0.80;0.70;;;10.90;96.60;;;;;;5035076;28;20506;-69
2023/03/09 10:17:41;;;;;;;0.30;0.30;;;10.40;97.30;;;;;;5052929;28;20161;-69
2023/03/09 10:20:34;;;;;;;0.47;0.47;;;10.00;97.80;;;;;;5053113;28;20432;-69
2023/03/09 10:23:04;;;;;;;5.30;0.80;;;9.90;99.80;;;;;;5048406;28;20194;-69
2023/03/09 10:25:32;;;;;;;0.40;0.40;;;9.80;99.30;;;;;;5056534;28;20320;-69
2023/03/09 10:28:04;;;;;;;0.45;0.45;;;9.80;99.40;;;;;;5056549;28;20210;-69
2023/03/09 10:31:01;;;;;;;0.45;0.45;;;9.80;99.40;;;;;;5056506;28;20701;-69
2023/03/09 10:33:51;;;;;;;0.40;0.40;;;9.70;99.30;;;;;;5056246;28;20335;-69
2023/03/09 10:36:38;;;;;;;0.70;0.70;;;9.50;99.70;;;;;;5056471;28;20171;-69
2023/03/09 10:39:14;;;;;;;0.60;0.60;;;9.50;99.70;;;;;;5056731;28;20224;-69
2023/03/09 10:41:41;;;;;;;0.30;0.30;;;9.30;99.90;;;;;;5056131;28;20656;-69
2023/03/09 10:44:06;;;;;;;0.40;0.40;;;9.50;99.90;;;;;;5056230;28;20256;-68
2023/03/09 10:46:56;;;;;;;0.53;0.53;;;9.70;99.90;;;;;;5038257;28;20293;-69
2023/03/09 10:49:22;;;;;;;1.35;0.45;;;9.90;99.90;;;;;;5038459;28;20436;-68
2023/03/09 10:52:01;;;;;;;2.50;0.83;;;10.00;98.90;;;;;;5056287;28;20190;-69
2023/03/09 10:54:37;;;;;;;0.40;0.40;;;10.00;98.90;;;;;;5056129;28;20154;-69
2023/03/09 10:57:24;;;;;;;0.40;0.40;;;9.80;99.90;;;;;;5038186;28;20180;-69
2023/03/09 11:00:19;;;;;;;0.40;0.40;;;9.90;99.90;;;;;;5056142;28;20174;-69
2023/03/09 11:02:58;;;;;;;0.57;0.57;;;10.30;99.90;;;;;;5047190;28;20441;-69
2023/03/09 11:05:29;;;;;;;1.48;1.38;;;10.50;98.90;;;;;;5056117;28;20170;-69
2023/03/09 11:08:02;;;;;;;0.40;0.40;;;10.50;98.30;;;;;;5056003;28;20202;-69
2023/03/09 11:10:30;;;;;;;0.30;0.30;;;10.60;98.90;;;;;;5055715;28;20642;-69
2023/03/09 11:12:57;;;;;;;0.30;0.30;;;10.40;98.00;;;;;;5055568;28;20198;-69
2023/03/09 11:15:32;;;;;;;0.38;0.38;;;10.50;98.50;;;;;;5055642;28;20174;-69
2023/03/09 11:18:00;;;;;;;0.30;0.30;;;10.50;98.70;;;;;;5055864;28;20196;-69
2023/03/09 11:20:35;;;;;;;0.30;0.30;;;10.60;99.10;;;;;;5055471;28;20166;-69
2023/03/09 11:23:28;;;;;;;0.50;0.50;;;10.60;99.60;;;;;;5055621;28;20200;-69
2023/03/09 11:26:12;;;;;;;6.18;0.90;;;10.60;99.20;;;;;;5055729;28;20177;-69
2023/03/09 11:28:59;;;;;;;0.40;0.40;;;10.70;99.90;;;;;;5055490;28;20162;-69
2023/03/09 11:31:46;;;;;;;0.40;0.40;;;10.90;99.30;;;;;;5037377;28;20759;-69
2023/03/09 11:34:30;;;;;;;0.30;0.30;;;11.10;99.30;;;;;;5054762;28;20489;-70
2023/03/09 11:37:13;;;;;;;0.40;0.40;;;11.40;99.00;;;;;;5054542;28;20768;-69
2023/03/09 11:39:55;;;;;;;0.80;0.40;;;11.50;98.50;;;;;;5055540;28;20764;-69
2023/03/09 11:43:03;;;;;;;0.40;0.40;;;11.60;98.20;;;;;;5054987;28;20961;-69
2023/03/09 11:45:32;;;;;;;0.40;0.40;;;11.60;97.50;;;;;;5032206;28;20420;-69
2023/03/09 11:47:58;;;;;;;0.30;0.30;;;11.40;97.90;;;;;;5054944;28;20502;-69
2023/03/09 11:50:32;;;;;;;1.33;1.10;;;11.30;97.50;;;;;;5054901;28;20404;-69
2023/03/09 11:53:19;;;;;;;0.70;0.70;;;11.20;98.50;;;;;;5055181;28;20221;-69
2023/03/09 11:55:50;;;;;;;0.40;0.40;;;11.20;98.60;;;;;;5055203;28;20425;-69
2023/03/09 11:58:22;;;;;;;0.30;0.30;;;11.40;98.90;;;;;;5055147;28;20397;-69
2023/03/09 12:00:52;;;;;;;0.30;0.30;;;11.50;98.00;;;;;;5054873;28;20392;-69
2023/03/09 12:03:19;;;;;;;0.40;0.40;;;11.60;98.20;;;;;;5054992;28;20186;-69
2023/03/09 12:05:58;;;;;;;0.30;0.30;;;11.60;98.00;;;;;;5055208;28;20432;-69
2023/03/09 12:08:34;;;;;;;0.70;0.70;;;11.80;98.50;;;;;;5054966;28;20520;-69
2023/03/09 12:11:05;;;;;;;0.40;0.40;;;12.00;97.40;;;;;;5054707;28;20443;-69
2023/03/09 12:13:35;;;;;;;0.60;0.60;;;12.10;97.50;;;;;;5054529;28;20915;-69
2023/03/09 12:16:11;;;;;;;0.67;0.40;;;12.20;97.50;;;;;;5054564;28;20401;-69
2023/03/09 12:18:42;;;;;;;0.40;0.40;;;12.20;96.90;;;;;;5054865;28;20408;-70
2023/03/09 12:21:10;;;;;;;0.50;0.50;;;12.00;97.10;;;;;;5054258;28;20811;-69
2023/03/09 12:23:36;;;;;;;1.47;0.60;;;12.10;98.30;;;;;;5054354;28;20484;-69
2023/03/09 12:26:28;;;;;;;2.30;0.87;;;12.20;98.00;;;;;;5036499;28;20830;-69
2023/03/09 12:29:21;;;;;;;4.03;0.87;;;12.00;97.30;;;;;;5054518;28;20220;-72
2023/03/09 12:32:17;;;;;;;0.30;0.30;;;12.00;97.50;;;;;;5031862;28;20913;-69
2023/03/09 12:34:45;;;;;;;0.37;0.37;;;12.20;96.80;;;;;;5054221;28;20417;-70
2023/03/09 12:37:30;;;;;;;4.67;0.60;;;12.20;97.10;;;;;;5054401;28;20413;-70
2023/03/09 12:40:26;;;;;;;3.20;0.50;;;12.10;97.00;;;;;;5054531;28;20396;-70
2023/03/09 12:42:54;;;;;;;1.13;0.60;;;12.00;97.40;;;;;;5054703;28;20431;-71
2023/03/09 12:45:30;;;;;;;2.93;0.80;;;12.00;97.20;;;;;;5054156;28;20424;-71
2023/03/09 12:48:14;;;;;;;1.07;1.07;;;12.10;96.70;;;;;;5053759;28;20452;-71
2023/03/09 12:50:45;;;;;;;0.63;0.60;;;12.20;97.30;;;;;;5053501;28;20415;-71
2023/03/09 12:53:12;;;;;;;0.30;0.30;;;12.30;97.20;;;;;;5053664;28;20795;-71
2023/03/09 12:55:37;;;;;;;0.43;0.43;;;12.40;96.00;;;;;;5054019;28;20897;-71
2023/03/09 12:58:21;;;;;;;3.20;0.70;;;12.40;95.60;;;;;;5053813;28;20491;-71
2023/03/09 13:00:57;;;;;;;0.47;0.47;;;12.40;95.60;;;;;;5053582;28;20243;-71
2023/03/09 13:03:51;;;;;;;0.90;0.83;;;12.20;95.80;;;;;;5053797;28;20428;-70
2023/03/09 13:06:34;;;;;;;0.50;0.50;;;12.10;95.60;;;;;;5053636;28;20478;-70
2023/03/09 13:09:13;;;;;;;1.40;0.83;;;12.10;95.60;;;;;;5053827;28;20428;-71
2023/03/09 13:11:49;;;;;;;0.60;0.60;;;12.20;95.20;;;;;;5053405;28;20509;-71
2023/03/09 13:14:24;;;;;;;1.70;0.40;;;12.20;94.90;;;;;;5053690;28;20404;-71
2023/03/09 13:16:52;;;;;;;12.40;1.00;;;12.20;95.20;;;;;;5053732;28;20400;-71
2023/03/09 13:19:23;;;;;;;0.50;0.50;;;12.30;95.40;;;;;;5053453;28;20412;-71